createdAt,value
2023-01-28T00:01:13.916Z,3.86
2023-01-28T00:03:41.133Z,3.86
2023-01-28T00:06:14.179Z,3.84
2023-01-28T00:08:42.024Z,3.89
2023-01-28T00:11:12.415Z,3.90
2023-01-28T00:13:39.567Z,3.89
2023-01-28T00:16:09.705Z,3.88
2023-01-28T00:18:37.177Z,3.81
2023-01-28T00:21:09.946Z,3.75
2023-01-28T00:23:38.806Z,3.89
2023-01-28T00:26:12.398Z,3.72
2023-01-28T00:28:39.293Z,3.51
2023-01-28T00:31:10.904Z,3.71
2023-01-28T00:33:38.029Z,3.67
2023-01-28T00:36:07.279Z,3.60
2023-01-28T00:38:35.542Z,3.32
2023-01-28T00:41:15.668Z,3.54
2023-01-28T00:43:44.744Z,3.54
2023-01-28T00:46:14.091Z,3.50
2023-01-28T00:48:42.834Z,3.55
2023-01-28T00:51:12.073Z,3.58
2023-01-28T00:53:39.768Z,3.33
2023-01-28T00:56:08.791Z,3.42
2023-01-28T00:58:35.678Z,3.37
2023-01-28T01:01:12.832Z,3.51
2023-01-28T01:03:40.304Z,3.37
2023-01-28T01:06:08.038Z,3.47
2023-01-28T01:08:35.318Z,3.62
2023-01-28T01:11:03.369Z,3.44
2023-01-28T01:13:31.424Z,3.57
2023-01-28T01:16:11.301Z,3.58
2023-01-28T01:18:42.102Z,3.58
2023-01-28T01:21:17.412Z,3.59
2023-01-28T01:23:45.083Z,3.50
2023-01-28T01:26:12.522Z,3.54
2023-01-28T01:28:39.610Z,3.52
2023-01-28T01:31:12.749Z,3.35
2023-01-28T01:33:39.943Z,3.35
2023-01-28T01:36:07.479Z,3.40
2023-01-28T01:38:35.504Z,3.25
2023-01-28T01:41:02.607Z,3.29
2023-01-28T01:43:51.193Z,3.23
2023-01-28T01:46:23.896Z,3.29
2023-01-28T01:48:52.089Z,3.30
2023-01-28T01:51:25.704Z,3.29
2023-01-28T01:53:55.071Z,3.25
2023-01-28T01:56:27.907Z,3.29
2023-01-28T01:58:57.573Z,3.28
2023-01-28T02:01:29.355Z,3.25
2023-01-28T02:04:01.315Z,3.35
2023-01-28T02:06:28.881Z,3.34
2023-01-28T02:08:56.687Z,3.31
2023-01-28T02:11:29.110Z,3.28
2023-01-28T02:14:00.709Z,3.14
2023-01-28T02:16:28.948Z,3.24
2023-01-28T02:18:55.789Z,3.31
2023-01-28T02:21:56.921Z,3.41
2023-01-28T02:24:54.580Z,3.44
2023-01-28T02:27:36.646Z,3.38
2023-01-28T02:30:21.673Z,3.40
2023-01-28T02:33:00.438Z,3.42
2023-01-28T02:36:18.827Z,3.51
2023-01-28T02:38:52.981Z,3.56
2023-01-28T02:41:33.371Z,3.60
2023-01-28T02:44:03.095Z,3.62
2023-01-28T02:46:48.540Z,3.69
2023-01-28T02:49:39.213Z,3.74
2023-01-28T02:52:45.778Z,3.75
2023-01-28T02:55:27.754Z,3.73
2023-01-28T02:58:39.014Z,3.81
2023-01-28T03:01:33.731Z,3.82
2023-01-28T03:04:23.711Z,3.79
2023-01-28T03:06:56.176Z,3.66
2023-01-28T03:09:25.971Z,3.66
2023-01-28T03:12:21.481Z,3.61
2023-01-28T03:15:12.683Z,3.57
2023-01-28T03:18:27.940Z,3.59
2023-01-28T03:21:34.714Z,3.36
2023-01-28T03:24:31.641Z,3.57
2023-01-28T03:27:25.937Z,3.58
2023-01-28T03:30:15.673Z,3.63
2023-01-28T03:33:01.898Z,3.50
2023-01-28T03:35:51.631Z,3.73
2023-01-28T03:38:23.145Z,3.59
2023-01-28T03:41:00.601Z,3.74
2023-01-28T03:43:28.984Z,3.60
2023-01-28T03:45:56.267Z,3.79
2023-01-28T03:48:25.757Z,3.74
2023-01-28T03:50:55.480Z,3.73
2023-01-28T03:53:23.250Z,3.69
2023-01-28T03:55:52.076Z,3.67
2023-01-28T03:58:19.440Z,3.67
2023-01-28T04:00:47.490Z,3.61
2023-01-28T04:03:18.035Z,3.60
2023-01-28T04:05:59.776Z,3.59
2023-01-28T04:08:26.795Z,3.46
2023-01-28T04:10:53.560Z,3.53
2023-01-28T04:13:20.727Z,3.44
2023-01-28T04:15:48.331Z,3.67
2023-01-28T04:18:15.388Z,3.44
2023-01-28T04:20:42.212Z,3.58
2023-01-28T04:23:09.772Z,3.54
2023-01-28T04:25:36.615Z,3.62
2023-01-28T04:28:03.539Z,3.64
2023-01-28T04:30:30.391Z,3.63
2023-01-28T04:32:57.191Z,3.67
2023-01-28T04:35:24.106Z,3.61
2023-01-28T04:37:50.928Z,3.67
2023-01-28T04:40:18.026Z,3.66
2023-01-28T04:42:54.414Z,3.63
2023-01-28T04:45:21.597Z,3.66
2023-01-28T04:47:48.559Z,3.63
2023-01-28T04:50:15.866Z,3.63
2023-01-28T04:52:42.860Z,3.73
2023-01-28T04:55:10.836Z,3.75
2023-01-28T04:57:37.697Z,3.74
2023-01-28T05:00:05.964Z,3.71
2023-01-28T05:02:33.136Z,3.62
2023-01-28T05:05:01.485Z,3.58
2023-01-28T05:07:28.337Z,3.55
2023-01-28T05:09:55.118Z,3.48
2023-01-28T05:12:22.015Z,3.59
2023-01-28T05:14:48.787Z,3.58
2023-01-28T05:17:15.676Z,3.62
2023-01-28T05:19:42.575Z,3.67
2023-01-28T05:22:09.648Z,3.64
2023-01-28T05:24:36.453Z,3.60
2023-01-28T05:27:03.430Z,3.58
2023-01-28T05:29:30.227Z,3.62
2023-01-28T05:31:57.046Z,3.64
2023-01-28T05:34:23.891Z,3.75
2023-01-28T05:36:50.699Z,3.74
2023-01-28T05:39:17.478Z,3.71
2023-01-28T05:41:44.295Z,3.87
2023-01-28T05:44:11.123Z,3.90
2023-01-28T05:46:38.138Z,3.81
2023-01-28T05:49:08.589Z,3.91
2023-01-28T05:51:35.401Z,3.95
2023-01-28T05:54:02.208Z,3.83
2023-01-28T05:56:28.980Z,4.01
2023-01-28T05:58:55.823Z,4.00
2023-01-28T06:01:22.641Z,4.00
2023-01-28T06:03:49.520Z,4.04
2023-01-28T06:06:16.288Z,3.96
2023-01-28T06:08:43.114Z,4.02
2023-01-28T06:11:09.943Z,4.01
2023-01-28T06:13:37.675Z,4.04
2023-01-28T06:16:04.999Z,4.03
2023-01-28T06:18:31.914Z,3.95
2023-01-28T06:20:58.890Z,3.99
2023-01-28T06:23:25.710Z,4.01
2023-01-28T06:25:56.613Z,3.90
2023-01-28T06:28:24.875Z,4.00
2023-01-28T06:30:53.209Z,4.02
2023-01-28T06:33:20.875Z,4.02
2023-01-28T06:35:47.675Z,4.00
2023-01-28T06:38:14.797Z,3.86
2023-01-28T06:40:41.692Z,4.00
2023-01-28T06:43:08.608Z,3.93
2023-01-28T06:45:35.473Z,3.97
2023-01-28T06:48:03.955Z,3.95
2023-01-28T06:50:30.944Z,3.95
2023-01-28T06:52:57.815Z,3.92
2023-01-28T06:55:24.634Z,3.67
2023-01-28T06:57:51.548Z,3.92
2023-01-28T07:00:19.144Z,3.92
2023-01-28T07:02:46.059Z,3.89
2023-01-28T07:05:12.893Z,3.84
2023-01-28T07:07:41.879Z,3.67
2023-01-28T07:10:10.721Z,3.40
2023-01-28T07:12:37.610Z,3.74
2023-01-28T07:15:04.912Z,3.63
2023-01-28T07:17:31.962Z,3.54
2023-01-28T07:19:58.927Z,3.51
2023-01-28T07:22:25.790Z,3.51
2023-01-28T07:24:52.644Z,3.51
2023-01-28T07:27:19.407Z,3.49
2023-01-28T07:29:46.178Z,3.46
2023-01-28T07:32:13.014Z,3.48
2023-01-28T07:34:41.694Z,3.53
2023-01-28T07:37:09.722Z,3.61
2023-01-28T07:39:36.530Z,3.52
2023-01-28T07:42:03.420Z,3.46
2023-01-28T07:44:30.226Z,3.49
2023-01-28T07:46:57.087Z,3.49
2023-01-28T07:49:23.958Z,3.55
2023-01-28T07:51:51.007Z,3.57
2023-01-28T07:54:17.900Z,3.47
2023-01-28T07:56:44.814Z,3.48
2023-01-28T07:59:11.816Z,3.50
2023-01-28T08:01:38.727Z,3.54
2023-01-28T08:04:05.757Z,3.58
2023-01-28T08:06:37.741Z,3.52
2023-01-28T08:09:06.163Z,3.61
2023-01-28T08:11:33.228Z,3.66
2023-01-28T08:14:00.392Z,3.59
2023-01-28T08:16:28.692Z,3.62
2023-01-28T08:18:55.635Z,3.41
2023-01-28T08:21:22.632Z,3.60
2023-01-28T08:23:49.579Z,3.58
2023-01-28T08:26:16.421Z,3.61
2023-01-28T08:28:43.314Z,3.69
2023-01-28T08:31:10.845Z,3.75
2023-01-28T08:33:37.907Z,3.64
2023-01-28T08:36:05.896Z,3.77
2023-01-28T08:38:32.962Z,3.74
2023-01-28T08:40:59.953Z,3.75
2023-01-28T08:43:26.873Z,3.82
2023-01-28T08:45:53.751Z,3.86
2023-01-28T08:48:20.924Z,3.89
2023-01-28T08:50:47.751Z,3.94
2023-01-28T08:53:17.834Z,4.00
2023-01-28T08:55:47.307Z,3.97
2023-01-28T08:58:17.151Z,4.04
2023-01-28T09:00:45.740Z,4.11
2023-01-28T09:03:12.830Z,4.05
2023-01-28T09:05:39.951Z,4.12
2023-01-28T09:08:13.099Z,4.04
2023-01-28T09:10:41.236Z,4.12
2023-01-28T09:13:11.820Z,4.17
2023-01-28T09:15:38.975Z,4.07
2023-01-28T09:18:06.361Z,4.24
2023-01-28T09:20:33.579Z,4.23
2023-01-28T09:23:01.729Z,4.25
2023-01-28T09:25:28.756Z,4.27
2023-01-28T09:27:55.624Z,4.29
2023-01-28T09:30:22.697Z,4.27
2023-01-28T09:32:53.573Z,4.32
2023-01-28T09:35:21.047Z,4.36
2023-01-28T09:37:48.766Z,4.37
2023-01-28T09:40:28.719Z,4.38
2023-01-28T09:42:59.728Z,4.39
2023-01-28T09:45:55.918Z,4.29
2023-01-28T09:48:45.491Z,4.38
2023-01-28T09:51:34.961Z,4.43
2023-01-28T09:54:21.147Z,4.43
2023-01-28T09:56:51.853Z,4.45
2023-01-28T09:59:22.210Z,4.50
2023-01-28T10:02:23.295Z,4.51
2023-01-28T10:05:19.407Z,4.56
2023-01-28T10:08:00.548Z,4.58
2023-01-28T10:10:34.445Z,4.60
2023-01-28T10:13:49.673Z,4.61
2023-01-28T10:16:29.908Z,4.69
2023-01-28T10:19:29.091Z,4.68
2023-01-28T10:22:22.133Z,4.56
2023-01-28T10:25:06.599Z,4.70
2023-01-28T10:27:36.229Z,4.71
2023-01-28T10:30:23.388Z,4.72
2023-01-28T10:32:56.979Z,4.75
2023-01-28T10:35:24.151Z,4.72
2023-01-28T10:37:59.510Z,4.67
2023-01-28T10:40:26.322Z,4.68
2023-01-28T10:42:53.131Z,4.67
2023-01-28T10:45:35.047Z,4.74
2023-01-28T10:48:32.078Z,4.65
2023-01-28T10:51:02.499Z,4.53
2023-01-28T10:53:42.320Z,4.60
2023-01-28T10:56:32.600Z,4.64
2023-01-28T10:59:03.873Z,4.68
2023-01-28T11:01:48.086Z,4.74
2023-01-28T11:04:36.124Z,4.66
2023-01-28T11:07:18.083Z,4.71
2023-01-28T11:09:51.317Z,4.78
2023-01-28T11:12:30.070Z,4.55
2023-01-28T11:15:00.113Z,4.71
2023-01-28T11:17:34.708Z,4.73
2023-01-28T11:20:17.836Z,4.64
2023-01-28T11:22:45.612Z,4.66
2023-01-28T11:25:27.626Z,4.65
2023-01-28T11:27:55.308Z,4.71
2023-01-28T11:30:34.961Z,4.66
2023-01-28T11:33:17.314Z,4.75
2023-01-28T11:35:58.492Z,4.74
2023-01-28T11:38:26.716Z,4.74
2023-01-28T11:40:57.213Z,4.79
2023-01-28T11:43:27.468Z,4.81
2023-01-28T11:46:18.418Z,4.80
2023-01-28T11:49:14.153Z,4.78
2023-01-28T11:52:22.857Z,4.67
2023-01-28T11:55:19.645Z,4.74
2023-01-28T11:58:04.237Z,4.76
2023-01-28T12:01:02.273Z,4.76
2023-01-28T12:04:07.164Z,4.82
2023-01-28T12:06:42.629Z,4.84
2023-01-28T12:09:53.432Z,4.77
2023-01-28T12:12:41.881Z,4.68
2023-01-28T12:15:33.082Z,4.65
2023-01-28T12:18:31.942Z,4.61
2023-01-28T12:21:31.504Z,4.58
2023-01-28T12:24:38.100Z,4.60
2023-01-28T12:27:29.163Z,4.70
2023-01-28T12:30:19.273Z,4.71
2023-01-28T12:33:23.476Z,4.70
2023-01-28T12:36:32.808Z,4.70
2023-01-28T12:39:20.078Z,4.66
2023-01-28T12:42:13.874Z,4.64
2023-01-28T12:45:05.665Z,4.54
2023-01-28T12:47:38.130Z,4.49
2023-01-28T12:50:20.794Z,4.63
2023-01-28T12:52:55.699Z,4.69
2023-01-28T12:55:44.280Z,4.59
2023-01-28T12:58:20.401Z,4.70
2023-01-28T13:00:55.000Z,4.57
2023-01-28T13:03:30.753Z,4.69
2023-01-28T13:06:10.581Z,4.74
2023-01-28T13:08:37.473Z,4.73
2023-01-28T13:11:05.516Z,4.63
2023-01-28T13:13:42.268Z,4.70
2023-01-28T13:16:10.947Z,4.69
2023-01-28T13:18:40.893Z,4.71
2023-01-28T13:21:15.689Z,4.73
2023-01-28T13:23:46.465Z,4.70
2023-01-28T13:26:19.494Z,4.57
2023-01-28T13:28:51.575Z,4.59
2023-01-28T13:31:22.376Z,4.27
2023-01-28T13:34:03.539Z,4.65
2023-01-28T13:36:47.797Z,4.65
2023-01-28T13:39:14.484Z,4.63
2023-01-28T13:41:43.983Z,4.51
2023-01-28T13:44:40.164Z,4.60
2023-01-28T13:47:25.459Z,4.65
2023-01-28T13:50:13.853Z,4.61
2023-01-28T13:53:07.631Z,4.58
2023-01-28T13:55:45.340Z,4.59
2023-01-28T13:58:49.729Z,4.65
2023-01-28T14:01:28.067Z,4.61
2023-01-28T14:04:24.700Z,4.57
2023-01-28T14:07:34.850Z,4.55
2023-01-28T14:10:33.764Z,4.51
2023-01-28T14:14:03.067Z,4.56
2023-01-28T14:17:03.913Z,4.52
2023-01-28T14:19:38.225Z,4.47
2023-01-28T14:22:10.678Z,4.44
2023-01-28T14:24:38.655Z,4.45
2023-01-28T14:27:23.205Z,4.48
2023-01-28T14:30:03.277Z,4.57
2023-01-28T14:32:33.634Z,4.59
2023-01-28T14:35:07.851Z,4.56
2023-01-28T14:37:35.792Z,4.65
2023-01-28T14:40:08.361Z,4.64
2023-01-28T14:42:50.872Z,4.63
2023-01-28T14:46:00.150Z,4.61
2023-01-28T14:48:51.463Z,4.60
2023-01-28T14:52:12.411Z,4.64
2023-01-28T14:54:58.306Z,4.47
2023-01-28T14:57:46.721Z,4.63
2023-01-28T15:00:34.905Z,4.65
2023-01-28T15:03:24.835Z,4.66
2023-01-28T15:06:18.491Z,4.63
2023-01-28T15:08:45.356Z,4.67
2023-01-28T15:11:18.303Z,4.70
2023-01-28T15:13:49.508Z,4.67
2023-01-28T15:16:21.576Z,4.72
2023-01-28T15:18:50.952Z,4.67
2023-01-28T15:21:23.416Z,4.70
2023-01-28T15:23:55.174Z,4.66
2023-01-28T15:26:31.784Z,4.68
2023-01-28T15:29:00.366Z,4.71
2023-01-28T15:31:34.394Z,4.72
2023-01-28T15:34:19.475Z,4.75
2023-01-28T15:36:47.862Z,4.73
2023-01-28T15:39:20.817Z,4.65
2023-01-28T15:41:56.446Z,4.53
2023-01-28T15:44:37.792Z,4.64
2023-01-28T15:47:33.727Z,4.64
2023-01-28T15:50:05.503Z,4.42
2023-01-28T15:52:37.106Z,4.57
2023-01-28T15:55:06.663Z,4.55
2023-01-28T15:57:35.156Z,4.63
2023-01-28T16:00:12.159Z,4.64
2023-01-28T16:02:54.201Z,4.69
2023-01-28T16:05:36.817Z,4.70
2023-01-28T16:08:17.194Z,4.72
2023-01-28T16:10:56.631Z,4.73
2023-01-28T16:13:31.177Z,4.65
2023-01-28T16:15:59.476Z,4.66
2023-01-28T16:18:51.747Z,4.66
2023-01-28T16:21:29.795Z,4.65
2023-01-28T16:24:06.475Z,4.64
2023-01-28T16:26:35.546Z,4.62
2023-01-28T16:29:16.974Z,4.59
2023-01-28T16:31:43.888Z,4.46
2023-01-28T16:34:11.714Z,4.64
2023-01-28T16:36:38.635Z,4.67
2023-01-28T16:39:05.929Z,4.60
2023-01-28T16:41:47.258Z,4.77
2023-01-28T16:44:14.994Z,4.72
2023-01-28T16:46:42.915Z,4.75
2023-01-28T16:49:10.532Z,4.69
2023-01-28T16:51:41.074Z,4.80
2023-01-28T16:54:11.946Z,4.78
2023-01-28T16:56:46.868Z,4.82
2023-01-28T16:59:15.863Z,4.87
2023-01-28T17:01:46.420Z,4.88
2023-01-28T17:04:13.576Z,4.91
2023-01-28T17:06:43.675Z,4.93
2023-01-28T17:09:12.691Z,4.92
2023-01-28T17:11:40.599Z,4.93
2023-01-28T17:14:08.557Z,4.93
2023-01-28T17:16:35.770Z,4.93
2023-01-28T17:19:02.818Z,4.90
2023-01-28T17:21:29.778Z,4.86
2023-01-28T17:23:58.376Z,4.93
2023-01-28T17:26:26.507Z,4.95
2023-01-28T17:28:53.865Z,4.91
2023-01-28T17:31:21.971Z,4.90
2023-01-28T17:33:57.188Z,4.88
2023-01-28T17:36:26.133Z,4.84
2023-01-28T17:38:53.780Z,4.74
2023-01-28T17:41:21.087Z,4.75
2023-01-28T17:43:56.420Z,4.79
2023-01-28T17:46:25.635Z,4.84
2023-01-28T17:48:53.435Z,4.80
2023-01-28T17:51:20.345Z,4.94
2023-01-28T17:53:49.771Z,4.93
2023-01-28T17:56:26.274Z,4.95
2023-01-28T17:59:03.459Z,4.93
2023-01-28T18:01:31.124Z,4.92
2023-01-28T18:03:59.235Z,4.93
2023-01-28T18:06:35.600Z,4.91
2023-01-28T18:09:03.779Z,4.89
2023-01-28T18:11:32.813Z,4.88
2023-01-28T18:13:59.666Z,4.88
2023-01-28T18:16:26.876Z,4.84
2023-01-28T18:18:53.776Z,4.83
2023-01-28T18:21:51.349Z,4.84
2023-01-28T18:24:19.092Z,4.83
2023-01-28T18:26:46.035Z,4.82
2023-01-28T18:29:16.893Z,4.80
2023-01-28T18:31:44.309Z,4.80
2023-01-28T18:34:11.240Z,4.78
2023-01-28T18:36:38.129Z,4.75
2023-01-28T18:39:04.967Z,4.71
2023-01-28T18:41:31.778Z,4.72
2023-01-28T18:43:58.750Z,4.67
2023-01-28T18:46:25.569Z,4.66
2023-01-28T18:48:52.824Z,4.64
2023-01-28T18:51:29.975Z,4.53
2023-01-28T18:53:59.873Z,4.54
2023-01-28T18:56:28.560Z,4.50
2023-01-28T18:58:57.511Z,4.51
2023-01-28T19:01:24.449Z,4.54
2023-01-28T19:03:51.430Z,4.48
2023-01-28T19:06:18.329Z,4.42
2023-01-28T19:08:45.233Z,4.29
2023-01-28T19:11:13.093Z,4.40
2023-01-28T19:13:39.914Z,4.07
2023-01-28T19:16:06.946Z,4.27
2023-01-28T19:18:33.826Z,4.32
2023-01-28T19:21:07.684Z,4.34
2023-01-28T19:23:49.115Z,4.31
2023-01-28T19:26:21.010Z,4.15
2023-01-28T19:28:49.349Z,4.08
2023-01-28T19:31:18.817Z,4.02
2023-01-28T19:33:46.791Z,4.05
2023-01-28T19:36:14.775Z,4.10
2023-01-28T19:38:42.054Z,3.98
2023-01-28T19:41:09.152Z,4.04
2023-01-28T19:43:36.073Z,4.09
2023-01-28T19:46:05.979Z,4.06
2023-01-28T19:48:33.397Z,4.07
2023-01-28T19:51:08.739Z,4.02
2023-01-28T19:53:36.623Z,4.06
2023-01-28T19:56:06.560Z,4.08
2023-01-28T19:58:35.174Z,4.04
2023-01-28T20:01:20.635Z,3.98
2023-01-28T20:03:52.703Z,4.04
2023-01-28T20:06:19.657Z,4.13
2023-01-28T20:08:56.264Z,4.16
2023-01-28T20:11:23.788Z,4.18
2023-01-28T20:13:52.106Z,4.24
2023-01-28T20:16:25.429Z,4.26
2023-01-28T20:18:55.794Z,4.14
2023-01-28T20:21:23.542Z,4.29
2023-01-28T20:23:53.473Z,4.25
2023-01-28T20:26:24.605Z,4.35
2023-01-28T20:28:51.866Z,4.38
2023-01-28T20:31:20.082Z,4.37
2023-01-28T20:33:47.083Z,4.32
2023-01-28T20:36:14.640Z,4.35
2023-01-28T20:38:46.471Z,4.36
2023-01-28T20:41:20.219Z,4.38
2023-01-28T20:43:48.435Z,4.30
2023-01-28T20:46:22.151Z,4.30
2023-01-28T20:48:49.473Z,4.19
2023-01-28T20:51:23.990Z,4.07
2023-01-28T20:53:51.807Z,3.88
2023-01-28T20:56:22.232Z,4.04
2023-01-28T20:58:55.480Z,4.03
2023-01-28T21:01:26.023Z,4.02
2023-01-28T21:03:52.971Z,3.94
2023-01-28T21:06:20.078Z,3.95
2023-01-28T21:08:46.962Z,3.97
2023-01-28T21:11:14.480Z,3.98
2023-01-28T21:13:41.466Z,4.08
2023-01-28T21:16:08.483Z,4.03
2023-01-28T21:18:35.404Z,3.97
2023-01-28T21:21:09.702Z,4.06
2023-01-28T21:23:36.508Z,3.98
2023-01-28T21:26:05.879Z,4.00
2023-01-28T21:28:33.055Z,3.99
2023-01-28T21:31:16.148Z,3.92
2023-01-28T21:33:43.322Z,3.93
2023-01-28T21:36:13.509Z,3.89
2023-01-28T21:38:40.912Z,3.90
2023-01-28T21:41:09.035Z,3.89
2023-01-28T21:43:35.931Z,3.76
2023-01-28T21:46:03.273Z,3.90
2023-01-28T21:48:30.758Z,3.87
2023-01-28T21:51:24.579Z,3.97
2023-01-28T21:53:51.502Z,3.82
2023-01-28T21:56:18.331Z,3.88
2023-01-28T21:59:03.660Z,3.97
2023-01-28T22:01:30.619Z,3.87
2023-01-28T22:03:57.719Z,3.86
2023-01-28T22:06:24.593Z,3.85
2023-01-28T22:08:54.770Z,3.76
2023-01-28T22:11:21.681Z,3.74
2023-01-28T22:13:48.592Z,3.74
2023-01-28T22:16:16.537Z,3.71
2023-01-28T22:18:43.386Z,3.78
2023-01-28T22:21:12.939Z,3.70
2023-01-28T22:23:40.088Z,3.77
2023-01-28T22:26:07.089Z,3.65
2023-01-28T22:28:33.923Z,3.64
2023-01-28T22:31:13.674Z,3.72
2023-01-28T22:33:41.578Z,3.72
2023-01-28T22:36:13.809Z,3.67
2023-01-28T22:38:43.591Z,3.67
2023-01-28T22:41:19.597Z,3.80
2023-01-28T22:43:46.735Z,3.80
2023-01-28T22:46:14.264Z,3.72
2023-01-28T22:48:41.654Z,3.80
2023-01-28T22:51:17.228Z,3.87
2023-01-28T22:53:45.508Z,3.82
2023-01-28T22:56:13.279Z,3.84
2023-01-28T22:58:40.291Z,3.83
2023-01-28T23:01:07.690Z,3.95
2023-01-28T23:03:35.540Z,3.91
2023-01-28T23:06:05.117Z,4.00
2023-01-28T23:08:33.442Z,3.93
2023-01-28T23:11:02.500Z,4.06
2023-01-28T23:13:53.535Z,3.97
2023-01-28T23:16:38.777Z,3.91
2023-01-28T23:19:24.279Z,3.88
2023-01-28T23:22:09.735Z,3.89
2023-01-28T23:24:36.563Z,3.88
2023-01-28T23:27:03.825Z,3.92
2023-01-28T23:29:31.895Z,3.99
2023-01-28T23:32:07.175Z,3.79
2023-01-28T23:34:37.524Z,3.92
2023-01-28T23:37:08.202Z,3.89
2023-01-28T23:39:35.295Z,3.69
2023-01-28T23:42:23.642Z,3.85
2023-01-28T23:44:50.489Z,3.77
2023-01-28T23:47:18.144Z,3.74
2023-01-28T23:49:45.245Z,3.71
2023-01-28T23:52:12.087Z,3.68
2023-01-28T23:54:38.910Z,3.59
2023-01-28T23:57:05.996Z,3.53
2023-01-28T23:59:32.827Z,3.60
